createdAt,value
2024-03-15T00:00:03.821Z,13.20
2024-03-15T00:02:32.165Z,13.20
2024-03-15T00:05:00.854Z,13.20
2024-03-15T00:07:29.551Z,13.10
2024-03-15T00:09:58.051Z,13.10
2024-03-15T00:12:26.970Z,13.10
2024-03-15T00:14:56.712Z,13.10
2024-03-15T00:17:25.340Z,13.10
2024-03-15T00:19:53.574Z,13.10
2024-03-15T00:22:23.351Z,13.10
2024-03-15T00:24:51.820Z,13.10
2024-03-15T00:27:20.566Z,13.10
2024-03-15T00:29:49.224Z,13.10
2024-03-15T00:32:17.892Z,13.20
2024-03-15T00:34:46.144Z,13.20
2024-03-15T00:37:14.718Z,13.20
2024-03-15T00:39:43.006Z,13.20
2024-03-15T00:42:11.293Z,13.20
2024-03-15T00:44:39.828Z,13.10
2024-03-15T00:47:08.684Z,13.10
2024-03-15T00:49:37.242Z,13.10
2024-03-15T00:52:05.717Z,13.00
2024-03-15T00:54:36.273Z,13.00
2024-03-15T00:57:06.435Z,12.90
2024-03-15T00:59:35.707Z,12.90
2024-03-15T01:02:03.904Z,12.90
2024-03-15T01:04:32.542Z,12.80
2024-03-15T01:07:00.253Z,12.80
2024-03-15T01:09:28.508Z,12.70
2024-03-15T01:11:57.084Z,12.70
2024-03-15T01:14:25.297Z,12.70
2024-03-15T01:16:53.491Z,12.70
2024-03-15T01:19:22.039Z,12.70
2024-03-15T01:21:50.311Z,12.70
2024-03-15T01:24:18.934Z,12.70
2024-03-15T01:26:47.582Z,12.70
2024-03-15T01:29:15.990Z,12.70
2024-03-15T01:31:47.088Z,12.70
2024-03-15T01:34:15.596Z,12.70
2024-03-15T01:36:44.137Z,12.70
2024-03-15T01:39:12.786Z,12.80
2024-03-15T01:41:41.107Z,12.80
2024-03-15T01:44:09.656Z,12.80
2024-03-15T01:46:37.931Z,12.80
2024-03-15T01:49:07.737Z,12.80
2024-03-15T01:51:36.066Z,12.80
2024-03-15T01:54:04.723Z,12.80
2024-03-15T01:56:33.322Z,12.80
2024-03-15T01:59:01.747Z,12.80
2024-03-15T02:01:30.341Z,12.80
2024-03-15T02:03:59.961Z,12.80
2024-03-15T02:06:28.297Z,12.80
2024-03-15T02:08:57.573Z,12.80
2024-03-15T02:11:26.365Z,12.80
2024-03-15T02:13:54.830Z,12.80
2024-03-15T02:16:23.381Z,12.80
2024-03-15T02:18:51.858Z,12.70
2024-03-15T02:21:20.239Z,12.80
2024-03-15T02:23:48.901Z,12.70
2024-03-15T02:26:19.079Z,12.70
2024-03-15T02:28:47.428Z,12.70
2024-03-15T02:31:15.765Z,12.70
2024-03-15T02:33:46.236Z,12.70
2024-03-15T02:36:14.625Z,12.70
2024-03-15T02:38:43.197Z,12.70
2024-03-15T02:41:11.721Z,12.60
2024-03-15T02:43:40.666Z,12.70
2024-03-15T02:46:09.223Z,12.70
2024-03-15T02:48:39.991Z,12.70
2024-03-15T02:51:08.627Z,12.70
2024-03-15T02:53:36.853Z,12.70
2024-03-15T02:56:05.586Z,12.70
2024-03-15T02:58:33.841Z,12.70
2024-03-15T03:01:02.511Z,12.70
2024-03-15T03:03:32.860Z,12.80
2024-03-15T03:06:01.696Z,12.80
2024-03-15T03:08:29.982Z,12.80
2024-03-15T03:10:58.664Z,12.80
2024-03-15T03:13:26.922Z,12.90
2024-03-15T03:15:55.867Z,12.90
2024-03-15T03:18:24.366Z,12.90
2024-03-15T03:20:53.033Z,12.90
2024-03-15T03:23:22.827Z,13.00
2024-03-15T03:25:51.880Z,13.00
2024-03-15T03:28:20.436Z,13.00
2024-03-15T03:30:49.290Z,13.00
2024-03-15T03:33:17.644Z,13.00
2024-03-15T03:35:45.952Z,13.00
2024-03-15T03:38:14.534Z,13.10
2024-03-15T03:40:43.055Z,13.10
2024-03-15T03:43:11.399Z,13.10
2024-03-15T03:45:43.551Z,13.10
2024-03-15T03:48:12.207Z,13.10
2024-03-15T03:50:40.604Z,13.10
2024-03-15T03:53:09.660Z,13.10
2024-03-15T03:55:41.452Z,13.10
2024-03-15T03:58:11.862Z,13.10
2024-03-15T04:00:40.201Z,13.10
2024-03-15T04:03:09.029Z,13.10
2024-03-15T04:05:39.190Z,13.10
2024-03-15T04:08:08.069Z,13.10
2024-03-15T04:10:37.784Z,13.10
2024-03-15T04:13:06.072Z,13.20
2024-03-15T04:15:34.847Z,13.10
2024-03-15T04:18:03.940Z,13.20
2024-03-15T04:20:33.129Z,13.10
2024-03-15T04:23:01.730Z,13.20
2024-03-15T04:25:30.096Z,13.20
2024-03-15T04:27:58.628Z,13.20
2024-03-15T04:30:27.252Z,13.20
2024-03-15T04:32:57.415Z,13.20
2024-03-15T04:35:30.115Z,13.20
2024-03-15T04:37:58.915Z,13.20
2024-03-15T04:40:30.238Z,13.20
2024-03-15T04:42:59.328Z,13.20
2024-03-15T04:45:27.687Z,13.20
2024-03-15T04:47:58.277Z,13.20
2024-03-15T04:50:26.530Z,13.20
2024-03-15T04:52:55.335Z,13.20
2024-03-15T04:55:23.862Z,13.20
2024-03-15T04:57:52.948Z,13.20
2024-03-15T05:00:22.933Z,13.10
2024-03-15T05:02:53.102Z,13.10
2024-03-15T05:05:25.333Z,13.00
2024-03-15T05:07:55.368Z,13.00
2024-03-15T05:10:24.163Z,12.90
2024-03-15T05:12:53.038Z,12.90
2024-03-15T05:15:21.862Z,12.90
2024-03-15T05:17:50.697Z,12.90
2024-03-15T05:20:19.871Z,12.90
2024-03-15T05:22:48.555Z,12.90
2024-03-15T05:25:17.944Z,12.90
2024-03-15T05:27:47.675Z,12.90
2024-03-15T05:30:19.426Z,12.90
2024-03-15T05:32:48.989Z,12.80
2024-03-15T05:35:20.450Z,12.80
2024-03-15T05:37:48.920Z,12.70
2024-03-15T05:40:19.688Z,12.70
2024-03-15T05:42:49.199Z,12.60
2024-03-15T05:45:19.300Z,12.60
2024-03-15T05:47:48.285Z,12.50
2024-03-15T05:50:16.905Z,12.50
2024-03-15T05:52:45.431Z,12.50
2024-03-15T05:55:14.718Z,12.40
2024-03-15T05:57:43.093Z,12.40
2024-03-15T06:00:17.050Z,12.30
2024-03-15T06:02:46.566Z,12.30
2024-03-15T06:05:14.917Z,12.30
2024-03-15T06:07:43.882Z,12.30
2024-03-15T06:10:12.142Z,12.30
2024-03-15T06:12:40.577Z,12.30
2024-03-15T06:15:10.948Z,12.30
2024-03-15T06:17:41.177Z,12.40
2024-03-15T06:20:11.862Z,12.40
2024-03-15T06:22:40.520Z,12.50
2024-03-15T06:25:09.339Z,12.50
2024-03-15T06:27:40.735Z,12.60
2024-03-15T06:30:11.405Z,12.60
2024-03-15T06:32:40.486Z,12.60
2024-03-15T06:35:20.173Z,12.70
2024-03-15T06:37:55.595Z,12.80
2024-03-15T06:40:32.465Z,12.80
2024-03-15T06:43:26.936Z,12.90
2024-03-15T06:45:58.911Z,12.90
2024-03-15T06:48:37.167Z,12.90
2024-03-15T06:51:19.632Z,13.00
2024-03-15T06:53:49.225Z,13.00
2024-03-15T06:56:17.520Z,13.00
2024-03-15T06:58:46.049Z,13.10
2024-03-15T07:01:14.625Z,13.10
2024-03-15T07:03:43.012Z,13.10
2024-03-15T07:06:11.991Z,13.10
2024-03-15T07:08:41.178Z,13.10
2024-03-15T07:11:13.552Z,13.20
2024-03-15T07:13:42.334Z,13.20
2024-03-15T07:16:10.683Z,13.20
2024-03-15T07:18:41.811Z,13.20
2024-03-15T07:21:12.894Z,13.30
2024-03-15T07:23:42.580Z,13.30
2024-03-15T07:26:12.043Z,13.30
2024-03-15T07:28:41.078Z,13.40
2024-03-15T07:31:10.262Z,13.40
2024-03-15T07:33:39.250Z,13.40
2024-03-15T07:36:09.733Z,13.40
2024-03-15T07:38:38.635Z,13.40
2024-03-15T07:41:11.996Z,13.50
2024-03-15T07:43:40.259Z,13.50
2024-03-15T07:46:09.804Z,13.50
2024-03-15T07:48:38.417Z,13.50
2024-03-15T07:51:06.885Z,13.60
2024-03-15T07:53:35.183Z,13.60
2024-03-15T07:56:05.438Z,13.60
2024-03-15T07:58:34.432Z,13.60
2024-03-15T08:01:02.926Z,13.60
2024-03-15T08:03:34.025Z,13.60
2024-03-15T08:06:03.448Z,13.70
2024-03-15T08:08:32.583Z,13.70
2024-03-15T08:11:03.373Z,13.70
2024-03-15T08:13:33.994Z,13.70
2024-03-15T08:16:19.810Z,13.80
2024-03-15T08:18:50.786Z,13.80
2024-03-15T08:21:19.493Z,13.80
2024-03-15T08:23:48.760Z,13.80
2024-03-15T08:26:17.037Z,13.90
2024-03-15T08:28:45.594Z,13.90
2024-03-15T08:31:14.264Z,13.90
2024-03-15T08:33:42.704Z,14.00
2024-03-15T08:36:11.399Z,14.00
2024-03-15T08:38:40.028Z,14.00
2024-03-15T08:41:10.520Z,14.00
2024-03-15T08:43:39.251Z,14.10
2024-03-15T08:46:07.608Z,14.10
2024-03-15T08:48:36.015Z,14.20
2024-03-15T08:51:05.391Z,14.20
2024-03-15T08:53:34.269Z,14.30
2024-03-15T08:56:02.772Z,14.30
2024-03-15T08:58:31.007Z,14.40
2024-03-15T09:01:00.006Z,14.40
2024-03-15T09:03:28.600Z,14.50
2024-03-15T09:05:56.844Z,14.50
2024-03-15T09:08:26.017Z,14.60
2024-03-15T09:10:54.567Z,14.60
2024-03-15T09:13:22.863Z,14.70
2024-03-15T09:15:51.663Z,14.70
2024-03-15T09:18:20.343Z,14.80
2024-03-15T09:20:49.068Z,14.90
2024-03-15T09:23:17.607Z,14.90
2024-03-15T09:25:45.975Z,15.00
2024-03-15T09:28:14.938Z,15.00
2024-03-15T09:30:57.898Z,15.10
2024-03-15T09:33:37.109Z,15.20
2024-03-15T09:36:07.151Z,15.20
2024-03-15T09:38:35.711Z,15.20
2024-03-15T09:41:07.480Z,15.30
2024-03-15T09:43:36.352Z,15.30
2024-03-15T09:46:05.522Z,15.40
2024-03-15T09:48:34.556Z,15.40
2024-03-15T09:51:05.637Z,15.50
2024-03-15T09:53:34.146Z,15.50
2024-03-15T09:56:05.220Z,15.60
2024-03-15T09:58:34.478Z,15.60
2024-03-15T10:01:03.428Z,15.70
2024-03-15T10:03:32.108Z,15.70
2024-03-15T10:06:02.908Z,15.80
2024-03-15T10:08:31.644Z,15.90
2024-03-15T10:11:00.103Z,15.90
2024-03-15T10:13:31.288Z,16.00
2024-03-15T10:16:01.374Z,16.10
2024-03-15T10:18:30.805Z,16.10
2024-03-15T10:20:59.642Z,16.20
2024-03-15T10:23:28.224Z,16.30
2024-03-15T10:26:02.764Z,16.40
2024-03-15T10:28:31.334Z,16.40
2024-03-15T10:30:59.757Z,16.50
2024-03-15T10:33:28.522Z,16.60
2024-03-15T10:35:56.891Z,16.70
2024-03-15T10:38:25.559Z,16.80
2024-03-15T10:40:54.100Z,16.90
2024-03-15T10:43:22.362Z,17.00
2024-03-15T10:45:51.145Z,17.10
2024-03-15T10:48:21.103Z,17.20
2024-03-15T10:50:49.661Z,17.30
2024-03-15T10:53:18.055Z,17.40
2024-03-15T10:55:49.244Z,17.50
2024-03-15T10:58:17.934Z,17.60
2024-03-15T11:00:48.573Z,17.60
2024-03-15T11:03:18.111Z,17.60
2024-03-15T11:05:47.199Z,17.70
2024-03-15T11:08:15.496Z,17.80
2024-03-15T11:10:53.974Z,17.80
2024-03-15T11:13:24.531Z,17.90
2024-03-15T11:15:54.775Z,17.90
2024-03-15T11:18:23.844Z,18.00
2024-03-15T11:20:53.916Z,18.00
2024-03-15T11:23:22.249Z,18.00
2024-03-15T11:25:57.008Z,18.00
2024-03-15T11:28:25.458Z,18.10
2024-03-15T11:30:53.717Z,18.10
2024-03-15T11:33:22.478Z,18.10
2024-03-15T11:35:50.898Z,18.10
2024-03-15T11:38:19.433Z,18.10
2024-03-15T11:40:47.795Z,18.00
2024-03-15T11:43:16.503Z,18.00
2024-03-15T11:45:45.052Z,18.00
2024-03-15T11:48:17.297Z,17.90
2024-03-15T11:50:46.202Z,18.00
2024-03-15T11:53:16.174Z,18.00
2024-03-15T11:55:44.750Z,17.90
2024-03-15T11:58:15.400Z,18.00
2024-03-15T12:00:43.791Z,18.00
2024-03-15T12:03:12.756Z,18.00
2024-03-15T12:05:43.066Z,18.00
2024-03-15T12:08:13.738Z,18.00
2024-03-15T12:10:42.056Z,18.00
2024-03-15T12:13:17.705Z,18.00
2024-03-15T12:15:46.819Z,18.00
2024-03-15T12:18:15.960Z,18.10
2024-03-15T12:20:44.321Z,18.00
2024-03-15T12:23:14.177Z,18.00
2024-03-15T12:25:42.453Z,18.00
2024-03-15T12:28:12.150Z,17.90
2024-03-15T12:30:41.903Z,17.90
2024-03-15T12:33:11.058Z,17.90
2024-03-15T12:35:39.511Z,17.80
2024-03-15T12:38:08.291Z,17.80
2024-03-15T12:40:37.040Z,17.80
2024-03-15T12:43:05.769Z,17.70
2024-03-15T12:45:34.056Z,17.70
2024-03-15T12:48:02.439Z,17.60
2024-03-15T12:50:32.854Z,17.60
2024-03-15T12:53:02.760Z,17.60
2024-03-15T12:55:31.247Z,17.60
2024-03-15T12:57:59.649Z,17.60
2024-03-15T13:00:31.372Z,17.60
2024-03-15T13:02:59.880Z,17.60
2024-03-15T13:05:28.414Z,17.50
2024-03-15T13:07:56.943Z,17.50
2024-03-15T13:10:25.168Z,17.50
2024-03-15T13:12:54.121Z,17.50
2024-03-15T13:15:23.803Z,17.50
2024-03-15T13:17:54.306Z,17.50
2024-03-15T13:20:23.345Z,17.50
2024-03-15T13:22:54.744Z,17.50
2024-03-15T13:25:33.747Z,17.50
2024-03-15T13:28:07.907Z,17.50
2024-03-15T13:30:39.208Z,17.50
2024-03-15T13:33:10.844Z,17.50
2024-03-15T13:35:43.004Z,17.50
2024-03-15T13:38:15.876Z,17.50
2024-03-15T13:40:45.183Z,17.60
2024-03-15T13:43:13.809Z,17.60
2024-03-15T13:45:42.126Z,17.60
2024-03-15T13:48:13.540Z,17.60
2024-03-15T13:50:42.408Z,17.70
2024-03-15T13:53:11.012Z,17.70
2024-03-15T13:55:40.809Z,17.70
2024-03-15T13:58:09.675Z,17.70
2024-03-15T14:00:41.152Z,17.70
2024-03-15T14:03:09.454Z,17.70
2024-03-15T14:05:39.422Z,17.70
2024-03-15T14:08:09.471Z,17.70
2024-03-15T14:10:37.966Z,17.70
2024-03-15T14:13:07.074Z,17.70
2024-03-15T14:15:36.326Z,17.70
2024-03-15T14:18:06.750Z,17.70
2024-03-15T14:20:36.716Z,17.80
2024-03-15T14:23:05.092Z,17.90
2024-03-15T14:25:34.056Z,18.00
2024-03-15T14:28:03.365Z,18.10
2024-03-15T14:30:35.057Z,18.20
2024-03-15T14:33:03.752Z,18.30
2024-03-15T14:35:32.273Z,18.40
2024-03-15T14:38:01.687Z,18.50
2024-03-15T14:40:30.783Z,18.60
2024-03-15T14:42:59.213Z,18.70
2024-03-15T14:45:28.432Z,18.70
2024-03-15T14:48:01.850Z,18.70
2024-03-15T14:50:33.109Z,18.60
2024-03-15T14:53:02.631Z,18.60
2024-03-15T14:55:34.984Z,18.60
2024-03-15T14:58:04.315Z,18.50
2024-03-15T15:00:33.937Z,18.40
2024-03-15T15:03:02.752Z,18.40
2024-03-15T15:05:31.285Z,18.30
2024-03-15T15:08:01.614Z,19.40
2024-03-15T15:10:30.843Z,18.30
2024-03-15T15:13:00.071Z,18.20
2024-03-15T15:15:29.366Z,18.10
2024-03-15T15:17:58.013Z,18.10
2024-03-15T15:20:26.608Z,18.00
2024-03-15T15:22:54.863Z,17.90
2024-03-15T15:25:23.601Z,17.90
2024-03-15T15:27:52.094Z,17.90
2024-03-15T15:30:20.988Z,17.90
2024-03-15T15:32:50.043Z,18.00
2024-03-15T15:35:18.605Z,18.10
2024-03-15T15:37:47.181Z,18.20
2024-03-15T15:40:17.994Z,18.20
2024-03-15T15:42:49.003Z,18.30
2024-03-15T15:45:19.285Z,18.30
2024-03-15T15:47:47.887Z,18.40
2024-03-15T15:50:19.883Z,18.40
2024-03-15T15:52:49.357Z,18.50
2024-03-15T15:55:18.998Z,18.60
2024-03-15T15:57:50.974Z,18.70
2024-03-15T16:00:21.687Z,18.70
2024-03-15T16:02:51.314Z,18.80
2024-03-15T16:05:20.128Z,18.80
2024-03-15T16:07:48.694Z,18.90
2024-03-15T16:10:18.166Z,19.00
2024-03-15T16:12:48.556Z,19.00
2024-03-15T16:15:16.929Z,19.00
2024-03-15T16:17:45.538Z,19.00
2024-03-15T16:20:14.710Z,19.00
2024-03-15T16:22:43.220Z,19.00
2024-03-15T16:25:11.874Z,18.90
2024-03-15T16:27:40.278Z,18.80
2024-03-15T16:30:09.165Z,18.80
2024-03-15T16:32:37.713Z,18.80
2024-03-15T16:35:08.418Z,18.70
2024-03-15T16:37:37.596Z,18.60
2024-03-15T16:40:08.452Z,18.60
2024-03-15T16:42:37.666Z,18.50
2024-03-15T16:45:07.578Z,18.40
2024-03-15T16:47:35.948Z,18.30
2024-03-15T16:50:07.067Z,18.30
2024-03-15T16:52:36.773Z,18.30
2024-03-15T16:55:06.466Z,18.20
2024-03-15T16:57:34.798Z,18.20
2024-03-15T17:00:15.505Z,18.10
2024-03-15T17:02:43.828Z,18.00
2024-03-15T17:05:12.054Z,18.00
2024-03-15T17:07:40.897Z,17.90
2024-03-15T17:10:12.111Z,17.90
2024-03-15T17:12:41.194Z,17.80
2024-03-15T17:15:11.027Z,17.80
2024-03-15T17:17:39.396Z,17.70
2024-03-15T17:20:11.007Z,17.70
2024-03-15T17:22:39.815Z,17.60
2024-03-15T17:25:09.385Z,17.60
2024-03-15T17:27:38.175Z,17.60
2024-03-15T17:30:08.153Z,17.50
2024-03-15T17:32:37.032Z,17.40
2024-03-15T17:35:05.913Z,17.40
2024-03-15T17:37:34.305Z,17.40
2024-03-15T17:40:02.734Z,17.30
2024-03-15T17:42:32.280Z,17.30
2024-03-15T17:45:00.576Z,17.20
2024-03-15T17:47:28.893Z,17.20
2024-03-15T17:49:57.362Z,17.20
2024-03-15T17:52:26.136Z,17.10
2024-03-15T17:54:54.787Z,17.10
2024-03-15T17:57:23.161Z,17.10
2024-03-15T17:59:51.717Z,17.00
2024-03-15T18:02:20.026Z,17.00
2024-03-15T18:04:48.283Z,17.00
2024-03-15T18:07:16.662Z,17.00
2024-03-15T18:09:44.916Z,16.90
2024-03-15T18:12:13.523Z,16.90
2024-03-15T18:14:41.750Z,16.90
2024-03-15T18:17:10.287Z,16.90
2024-03-15T18:19:38.834Z,16.80
2024-03-15T18:22:07.167Z,16.80
2024-03-15T18:24:35.484Z,16.80
2024-03-15T18:27:05.007Z,16.80
2024-03-15T18:29:33.265Z,16.70
2024-03-15T18:32:01.798Z,16.70
2024-03-15T18:34:30.062Z,16.70
2024-03-15T18:36:59.368Z,16.70
2024-03-15T18:39:30.375Z,16.60
2024-03-15T18:41:59.114Z,16.60
2024-03-15T18:44:29.858Z,16.60
2024-03-15T18:46:58.996Z,16.60
2024-03-15T18:49:27.621Z,16.50
2024-03-15T18:51:55.972Z,16.50
2024-03-15T18:54:24.528Z,16.50
2024-03-15T18:56:54.825Z,15.50
2024-03-15T18:59:28.096Z,16.40
2024-03-15T19:01:57.648Z,16.40
2024-03-15T19:04:26.200Z,16.40
2024-03-15T19:06:54.467Z,16.40
2024-03-15T19:09:23.124Z,16.40
2024-03-15T19:11:51.829Z,16.40
2024-03-15T19:14:22.258Z,16.40
2024-03-15T19:16:50.491Z,16.30
2024-03-15T19:19:19.035Z,16.30
2024-03-15T19:24:15.914Z,16.30
2024-03-15T19:26:45.214Z,16.30
2024-03-15T19:29:13.421Z,16.30
2024-03-15T19:31:41.700Z,16.30
2024-03-15T19:34:10.157Z,16.30
2024-03-15T19:36:38.776Z,16.30
2024-03-15T19:39:09.235Z,16.30
2024-03-15T19:41:39.446Z,16.30
2024-03-15T19:44:07.737Z,16.30
2024-03-15T19:46:36.500Z,16.30
2024-03-15T19:49:05.079Z,16.30
2024-03-15T19:51:34.171Z,16.30
2024-03-15T19:54:02.500Z,16.20
2024-03-15T19:56:31.035Z,16.20
2024-03-15T19:58:59.442Z,16.20
2024-03-15T20:01:30.145Z,16.20
2024-03-15T20:03:58.675Z,16.20
2024-03-15T20:06:28.397Z,16.10
2024-03-15T20:08:57.380Z,16.10
2024-03-15T20:11:25.949Z,16.10
2024-03-15T20:13:54.215Z,16.10
2024-03-15T20:16:25.872Z,16.10
2024-03-15T20:18:55.808Z,16.10
2024-03-15T20:21:24.436Z,16.10
2024-03-15T20:23:52.721Z,16.00
2024-03-15T20:26:24.432Z,16.00
2024-03-15T20:28:53.909Z,16.00
2024-03-15T20:31:22.463Z,15.90
2024-03-15T20:33:50.760Z,15.90
2024-03-15T20:36:19.167Z,15.90
2024-03-15T20:38:48.082Z,15.90
2024-03-15T20:41:18.656Z,15.80
2024-03-15T20:43:47.289Z,15.80
2024-03-15T20:46:15.825Z,15.80
2024-03-15T20:48:44.162Z,15.80
2024-03-15T20:51:14.875Z,15.80
2024-03-15T20:53:47.334Z,15.80
2024-03-15T20:56:15.585Z,15.70
2024-03-15T20:58:44.093Z,15.70
2024-03-15T21:01:12.492Z,15.70
2024-03-15T21:03:41.162Z,15.70
2024-03-15T21:06:09.901Z,15.70
2024-03-15T21:08:38.250Z,15.70
2024-03-15T21:11:06.866Z,15.60
2024-03-15T21:13:36.054Z,15.70
2024-03-15T21:16:04.821Z,15.60
2024-03-15T21:18:33.608Z,15.60
2024-03-15T21:21:01.802Z,15.60
2024-03-15T21:23:30.091Z,15.60
2024-03-15T21:25:58.338Z,15.60
2024-03-15T21:28:26.885Z,15.60
2024-03-15T21:30:57.326Z,15.60
2024-03-15T21:33:26.133Z,15.60
2024-03-15T21:35:56.836Z,15.60
2024-03-15T21:38:26.249Z,15.60
2024-03-15T21:40:55.015Z,15.60
2024-03-15T21:43:27.211Z,15.60
2024-03-15T21:45:58.303Z,15.60
2024-03-15T21:48:27.187Z,15.60
2024-03-15T21:50:55.917Z,15.60
2024-03-15T21:53:24.189Z,15.60
2024-03-15T21:55:54.564Z,15.60
2024-03-15T21:58:23.085Z,15.60
2024-03-15T22:00:58.182Z,15.60
2024-03-15T22:03:27.196Z,15.60
2024-03-15T22:05:55.890Z,15.50
2024-03-15T22:08:25.617Z,15.50
2024-03-15T22:10:54.980Z,15.50
2024-03-15T22:13:24.266Z,15.50
2024-03-15T22:15:55.319Z,15.50
2024-03-15T22:18:23.747Z,15.50
2024-03-15T22:20:52.106Z,15.50
2024-03-15T22:23:20.419Z,15.50
2024-03-15T22:25:50.852Z,15.50
2024-03-15T22:28:19.226Z,15.50
2024-03-15T22:30:52.061Z,15.50
2024-03-15T22:33:20.594Z,15.50
2024-03-15T22:35:49.321Z,15.40
2024-03-15T22:38:17.982Z,15.40
2024-03-15T22:40:46.246Z,15.40
2024-03-15T22:43:15.297Z,15.40
2024-03-15T22:45:44.961Z,15.40
2024-03-15T22:48:13.280Z,15.40
2024-03-15T22:50:42.128Z,15.40
2024-03-15T22:53:13.429Z,15.40
2024-03-15T22:55:41.935Z,15.40
2024-03-15T22:58:10.346Z,15.40
2024-03-15T23:00:44.291Z,15.40
2024-03-15T23:03:13.949Z,15.40
2024-03-15T23:05:42.267Z,15.40
2024-03-15T23:08:10.879Z,15.30
2024-03-15T23:10:42.011Z,15.30
2024-03-15T23:13:12.903Z,15.30
2024-03-15T23:15:41.357Z,15.30
2024-03-15T23:18:10.671Z,15.40
2024-03-15T23:20:39.113Z,15.30
2024-03-15T23:23:08.418Z,15.30
2024-03-15T23:25:37.776Z,15.30
2024-03-15T23:28:06.820Z,15.30
2024-03-15T23:30:36.033Z,15.30
2024-03-15T23:33:07.248Z,15.30
2024-03-15T23:35:36.947Z,15.30
2024-03-15T23:38:06.949Z,15.30
2024-03-15T23:40:38.974Z,15.30
2024-03-15T23:43:09.884Z,15.20
2024-03-15T23:45:38.887Z,15.20
2024-03-15T23:48:07.960Z,15.20
2024-03-15T23:50:36.338Z,15.20
2024-03-15T23:53:04.729Z,15.20
2024-03-15T23:55:33.258Z,15.20
2024-03-15T23:58:01.547Z,15.20
